Latest Coastal Weather Observations for Avalon

IDV60701

Issued at 6:51 pm EST Monday 30 May 2016 (issued every 10 minutes, with the page automatically refreshed every 10 minutes)

About coastal observations | Map of coastal stations | Coastal observations for VIC | Marine services | Other Formats
Station Details ID: 087113 Name: AVALON AIRPORT Lat: -38.03 Lon: 144.48 Height: 10.6 m
Data from the previous 72 hours. | See also: Recent months at Avalon
Date/Time
EST
Temp

°C
Wind Pressure Rain
since 9am
mm
Weather Cloud Vis
km
Sea
Height
m
Swell
Dir
 
Speed
knots
Gust
knots
hPa Trend Height
m
Period
s
Dir
30/06:30pm 8.2 E 4 5 1027.1 - 0.0 - - 10 - - - -
30/06:00pm 8.6 E 5 6 1026.8 - 0.0 - - 10 - - - -
30/05:30pm 8.8 ESE 6 6 1026.5 - 0.0 - - 10 - - - -
30/05:00pm 9.9 ESE 6 6 1026.3 - 0.0 - - 10 - - - -
30/04:30pm 11.6 ESE 6 8 1026.1 - 0.0 - - 10 - - - -
30/04:00pm 12.5 ESE 7 8 1025.9 - 0.0 - - 10 - - - -
30/03:30pm 12.9 ESE 7 9 1025.9 - 0.0 - - 10 - - - -
30/03:00pm 13.0 ESE 8 11 1026.0 - 0.0 - - 10 - - - -
30/02:30pm 13.2 ESE 9 13 1025.8 - 0.0 - - 10 - - - -
30/02:00pm 13.2 ESE 9 11 1026.0 - 0.0 - - 10 - - - -
30/01:30pm 13.3 E 9 13 1026.1 - 0.0 - - 10 - - - -
30/01:00pm 13.4 ESE 9 12 1026.2 - 0.0 - - 10 - - - -
30/12:30pm 13.3 ENE 9 11 1026.3 - 0.0 - - 10 - - - -
30/12:00pm 13.4 ENE 9 11 1026.6 - 0.0 - - 10 - - - -
30/11:30am 13.1 ENE 7 9 1026.8 - 0.0 - - 10 - - - -
30/11:00am 12.4 NNE 5 8 1027.2 - 0.0 - - 10 - - - -
30/10:30am 11.5 CALM 0 5 1027.5 - 0.0 - - 10 - - - -
30/10:00am 9.7 NE 1 4 1027.4 - 0.0 - Partly cloudy 10 - - - -
30/09:30am 7.9 NNE 3 4 1027.2 - 0.0 - Cloudy 10 - - - -
30/09:00am 7.0 NNE 1 4 1027.1 - 0.0 - Mostly cloudy 10 - - - -
30/08:30am 6.5 N 5 6 1027.0 - 0.0 - Cloudy 10 - - - -
30/08:00am 6.3 N 5 6 1026.6 - 0.0 - Cloudy 10 - - - -
30/07:30am 6.2 CALM 0 0 1026.3 - 0.0 - Cloudy 10 - - - -
30/07:00am 6.1 E 1 3 1026.1 - 0.0 - Cloudy 10 - - - -
30/06:30am 5.8 E 2 6 1025.7 - 0.0 - Cloudy 10 - - - -
30/06:00am 5.9 WSW 2 5 1025.3 - 0.0 - Cloudy 10 - - - -
30/05:30am 5.9 NW 7 8 1024.9 - 0.0 - Cloudy 10 - - - -
30/05:00am 5.8 W 5 7 1024.8 - 0.0 - Cloudy 10 - - - -
30/04:30am 5.8 WSW 4 6 1024.5 - 0.0 - Cloudy 10 - - - -
30/04:00am 6.0 W 4 5 1024.4 - 0.0 - Cloudy 10 - - - -
30/03:30am 6.4 NW 5 7 1024.3 - 0.0 - Cloudy 10 - - - -
30/03:00am 6.5 W 5 6 1024.4 - 0.0 - Cloudy 10 - - - -
30/02:30am 6.6 W 5 7 1024.2 - 0.0 - Cloudy 10 - - - -
30/02:00am 6.0 W 5 6 1024.1 - 0.0 - Cloudy 10 - - - -
30/01:30am 5.8 W 5 6 1023.9 - 0.0 - Cloudy 10 - - - -
30/01:00am 5.4 WNW 5 5 1023.7 - 0.0 - Partly cloudy 10 - - - -
30/12:30am 5.2 NW 6 7 1023.8 - 0.0 - Cloudy 10 - - - -
30/12:00am 5.7 NW 6 7 1023.7 - 0.0 - - 10 - - - -
 
Date/Time
EST
Temp

°C
Wind Pressure Rain
since 9am
mm
Weather Cloud Vis
km
Sea
Height
m
Swell
Dir
 
Speed
knots
Gust
knots
hPa Trend Height
m
Period
s
Dir
29/11:30pm 7.6 NW 5 5 1023.6 - 0.0 - - 10 - - - -
29/11:00pm 8.0 NW 5 6 1023.5 - 0.0 - Partly cloudy 10 - - - -
29/10:30pm 8.8 NW 4 5 1023.5 - 0.0 - Cloudy 10 - - - -
29/10:00pm 9.2 NNW 4 7 1023.4 - 0.0 - Cloudy 10 - - - -
29/09:30pm 9.7 NW 3 7 1023.2 - 0.0 - Partly cloudy 10 - - - -
29/09:00pm 10.3 WNW 3 5 1023.2 - 0.0 - Cloudy 10 - - - -
29/08:30pm 10.1 NNW 3 4 1023.0 - 0.0 - Cloudy 10 - - - -
29/08:00pm 10.4 NW 5 6 1022.9 - 0.0 - Cloudy 10 - - - -
29/07:30pm 10.7 W 5 6 1022.5 - 0.0 - Cloudy 10 - - - -
29/07:00pm 11.1 W 5 6 1022.2 - 0.0 - Cloudy 10 - - - -
29/06:30pm 11.0 NW 4 5 1022.0 - 0.0 - Cloudy 10 - - - -
29/06:00pm 11.5 NNW 4 6 1021.7 - 0.0 - Cloudy 10 - - - -
29/05:30pm 11.7 NW 5 6 1021.4 - 0.0 - Cloudy 10 - - - -
29/05:00pm 12.1 W 6 8 1021.2 - 0.0 - Cloudy 10 - - - -
29/04:30pm 12.3 WNW 5 7 1021.1 - 0.0 - Cloudy 10 - - - -
29/04:00pm 12.4 WSW 4 6 1021.0 - 0.0 - Cloudy 10 - - - -
29/03:30pm 12.4 WNW 7 9 1020.9 - 0.0 - Cloudy 10 - - - -
29/03:00pm 12.6 W 7 9 1020.8 - 0.0 - Cloudy 10 - - - -
29/02:30pm 12.7 NW 7 9 1020.7 - 0.0 - Cloudy 10 - - - -
29/02:00pm 12.7 WNW 6 8 1020.6 - 0.0 - Cloudy 10 - - - -
29/01:30pm 12.9 W 6 7 1020.5 - 0.0 - Cloudy 10 - - - -
29/01:00pm 12.7 W 11 14 1020.7 - 0.0 - Cloudy 10 - - - -
29/12:30pm 12.6 W 10 14 1020.7 - 0.0 - Cloudy 10 - - - -
29/12:00pm 12.3 W 10 13 1020.8 - 0.0 - Cloudy 10 - - - -
29/11:30am 12.0 W 11 13 1021.0 - 0.0 - Cloudy 10 - - - -
29/11:00am 11.9 WNW 10 12 1021.0 - 0.0 - Cloudy 10 - - - -
29/10:30am 11.6 WNW 10 13 1020.9 - 0.0 - Cloudy 10 - - - -
29/10:00am 11.2 WNW 9 11 1020.7 - 0.0 - Cloudy 10 - - - -
29/09:30am 10.9 WNW 10 12 1020.3 - 0.0 - Cloudy 10 - - - -
29/09:00am 10.3 WNW 10 13 1020.2 - 1.4 - Cloudy 10 - - - -
29/08:30am 9.9 WNW 12 14 1019.7 - 1.4 - Cloudy 10 - - - -
29/08:00am 9.8 W 9 12 1019.4 - 1.4 - Cloudy 10 - - - -
29/07:30am 9.6 WNW 10 12 1019.1 - 1.4 - Cloudy 10 - - - -
29/07:00am 9.5 WNW 9 11 1018.9 - 1.4 - Cloudy 10 - - - -
29/06:30am 9.5 WNW 9 11 1018.6 - 1.4 - Cloudy 10 - - - -
29/06:00am 9.5 WNW 10 12 1018.3 - 1.4 - Cloudy 10 - - - -
29/05:30am 9.3 W 11 15 1018.3 - 1.4 - Cloudy 10 - - - -
29/05:00am 9.4 W 12 16 1018.1 - 1.4 - Cloudy 10 - - - -
29/04:30am 9.7 WNW 12 16 1017.9 - 1.4 - Cloudy 10 - - - -
29/04:00am 9.5 WNW 13 15 1017.7 - 1.4 - Cloudy 10 - - - -
29/03:30am 9.5 WNW 10 13 1017.5 - 1.4 - Cloudy 10 - - - -
29/03:00am 9.6 WNW 11 13 1017.5 - 1.4 - Cloudy 10 - - - -
29/02:30am 9.6 WNW 13 17 1017.3 - 1.4 - Cloudy 10 - - - -
29/02:00am 9.5 WNW 13 17 1017.2 - 1.4 - Cloudy 10 - - - -
29/01:30am 9.7 WNW 12 15 1017.0 - 1.4 - Cloudy 10 - - - -
29/01:00am 9.9 W 12 15 1016.8 - 1.4 - Cloudy 10 - - - -
29/12:30am 9.8 W 13 16 1016.8 - 1.4 - Cloudy 10 - - - -
29/12:00am 9.9 WNW 14 18 1016.8 - 1.4 - Cloudy 10 - - - -
 
Date/Time
EST
Temp

°C
Wind Pressure Rain
since 9am
mm
Weather Cloud Vis
km
Sea
Height
m
Swell
Dir
 
Speed
knots
Gust
knots
hPa Trend Height
m
Period
s
Dir
28/11:30pm 9.9 WNW 13 17 1016.8 - 1.4 - Cloudy 10 - - - -
28/11:00pm 10.0 W 14 19 1016.7 - 1.4 - Cloudy 10 - - - -
28/10:30pm 9.9 W 12 15 1016.6 - 1.4 - Cloudy 10 - - - -
28/10:00pm 10.1 W 11 14 1016.7 - 1.4 - Cloudy 10 - - - -
28/09:30pm 10.0 W 11 13 1016.6 - 1.4 - Cloudy 10 - - - -
28/09:00pm 9.8 W 16 19 1016.6 - 1.4 - Cloudy 10 - - - -
28/08:30pm 9.9 W 12 16 1016.4 - 1.4 - Cloudy 10 - - - -
28/08:00pm 9.7 W 11 13 1016.2 - 1.4 - Partly cloudy 10 - - - -
28/07:30pm 10.2 WSW 10 14 1016.1 - 1.4 - Partly cloudy 10 - - - -
28/07:00pm 10.6 WSW 9 13 1015.8 - 1.4 - Partly cloudy 10 - - - -
28/06:30pm 10.8 W 10 13 1015.3 - 1.4 - Partly cloudy 10 - - - -
28/06:00pm 11.3 W 9 13 1014.8 - 1.4 - Cloudy 10 - - - -
28/05:30pm 11.5 WSW 10 12 1014.5 - 1.4 - Partly cloudy 10 - - - -
28/05:00pm 11.9 WSW 10 13 1014.0 - 1.4 - Cloudy 10 - - - -
28/04:30pm 13.0 WSW 13 16 1013.5 - 1.4 - Partly cloudy 10 - - - -
28/04:00pm 13.3 SW 13 16 1013.3 - 1.4 - Partly cloudy 10 - - - -
28/03:30pm 13.6 SW 14 17 1013.1 - 1.4 - Cloudy 10 - - - -
28/03:00pm 14.3 SW 15 19 1012.6 - 1.4 - Cloudy 10 - - - -
28/02:30pm 14.5 SW 15 21 1012.4 - 1.4 - Partly cloudy 10 - - - -
28/02:00pm 13.9 SSW 17 21 1012.1 - 1.4 - Partly cloudy 10 - - - -
28/01:30pm 13.6 SW 15 20 1012.0 - 1.4 - Partly cloudy 10 - - - -
28/01:00pm 12.6 SW 12 16 1012.0 - 1.4 - Partly cloudy 10 - - - -
28/12:30pm 12.8 SW 11 14 1011.9 - 1.4 - Partly cloudy 10 - - - -
28/12:00pm 12.4 W 4 7 1012.0 - 1.4 Drizzle Mostly cloudy 10 - - - -
28/11:30am 11.0 WSW 6 8 1012.3 - 1.4 - Partly cloudy 10 - - - -
28/11:00am 10.7 W 10 13 1012.2 - 1.4 - Partly cloudy 10 - - - -
28/10:30am 10.2 W 11 15 1012.2 - 1.2 - Partly cloudy 10 - - - -
28/10:00am 9.3 W 9 13 1011.9 - 1.0 - Partly cloudy 7 - - - -
28/09:30am 9.8 W 10 13 1011.5 - 0.4 - Partly cloudy 10 - - - -
28/09:00am 9.0 W 10 13 1011.4 - 1.0 Showers Cloudy 10 - - - -
28/08:30am 8.2 W 8 12 1011.1 - 1.0 - Partly cloudy 10 - - - -
28/08:00am 7.6 WNW 8 9 1010.7 - 1.0 - Partly cloudy 10 - - - -
28/07:30am 7.7 NW 6 8 1010.6 - 0.8 - Partly cloudy 10 - - - -
28/07:00am 8.3 WNW 5 7 1010.3 - 0.8 - Partly cloudy 10 - - - -
28/06:30am 8.0 W 5 6 1010.0 - 0.6 - Partly cloudy 10 - - - -
28/06:00am 7.5 NW 4 5 1009.5 - 0.2 Showers Partly cloudy 10 - - - -
28/05:30am 7.7 WNW 6 7 1009.2 - 0.2 - Partly cloudy 10 - - - -
28/05:00am 9.0 - 2 5 1008.9 - 0.2 - Partly cloudy 10 - - - -
28/04:30am 7.9 W 5 7 1008.9 - 0.0 - Partly cloudy 10 - - - -
28/04:00am 7.5 WSW 5 6 1008.4 - 0.0 - Partly cloudy 10 - - - -
28/03:30am 8.3 WSW 5 8 1008.4 - 0.0 - Partly cloudy 10 - - - -
28/03:00am 7.9 WNW 3 4 1008.4 - 0.0 Showers Partly cloudy 10 - - - -
28/02:30am 8.7 WSW 6 7 1008.6 - 0.0 - Cloudy 10 - - - -
28/02:00am 9.5 WSW 5 6 1008.5 - 0.0 - Cloudy 10 - - - -
28/01:30am 9.4 WSW 5 6 1008.5 - 0.0 - Cloudy 10 - - - -
28/01:00am 8.6 WSW 7 9 1008.4 - 0.0 - Partly cloudy 10 - - - -
28/12:30am 7.9 NNW 4 5 1008.2 - 0.0 - Partly cloudy 10 - - - -
28/12:00am 8.2 NW 4 5 1008.4 - 0.0 - Cloudy 10 - - - -
 
Date/Time
EST
Temp

°C
Wind Pressure Rain
since 9am
mm
Weather Cloud Vis
km
Sea
Height
m
Swell
Dir
 
Speed
knots
Gust
knots
hPa Trend Height
m
Period
s
Dir
27/11:30pm 8.2 NNW 5 5 1008.4 - 0.0 - Cloudy 10 - - - -
27/11:00pm 8.1 CALM 0 0 1008.3 - 0.0 - Cloudy 10 - - - -
27/10:30pm 8.0 CALM 0 0 1008.2 - 0.0 - Partly cloudy 10 - - - -
27/10:00pm 8.2 CALM 0 2 1008.2 - 0.0 - Partly cloudy 10 - - - -
27/09:30pm 8.1 SE 6 6 1008.1 - 0.0 - Partly cloudy 10 - - - -
27/09:00pm 7.7 SE 5 6 1008.0 - 0.0 - Cloudy 10 - - - -
27/08:30pm 8.2 SE 4 5 1007.9 - 0.0 - - 10 - - - -
27/08:00pm 8.6 ESE 4 5 1007.7 - 0.0 - - 10 - - - -
27/07:30pm 8.7 ESE 5 5 1007.5 - 0.0 - - 10 - - - -
27/07:00pm 9.1 ESE 4 4 1007.3 - 0.0 - - 10 - - - -

Other Formats:

Comma delimited format used in spreadsheet applications
http://www.bom.gov.au/fwo/IDV60701/IDV60701.94854.axf

JavaScript Object Notation format (JSON) in row-major order
http://www.bom.gov.au/fwo/IDV60701/IDV60701.94854.json